Time;durP1;ratioP1;P1;durP2;ratioP2;P2;SDS_P1;SDS_P2;PMS_P1;PMS_P2;Temp;Humidity;BMP_temperature;BMP_pressure;BME280_temperature;BME280_humidity;BME280_pressure;Samples;Min_cycle;Max_cycle;Signal;HPM_P1;HPM_P2
2023/02/04 00:01:45;;;;;;;14.07;8.70;;;;;9.60;102757.00;;;;10459030;28;20284;-83
2023/02/04 00:06:46;;;;;;;13.73;9.37;;;;;9.50;102761.00;;;;10513839;27;20288;-83
2023/02/04 00:11:47;;;;;;;13.97;8.80;;;;;9.50;102771.00;;;;10467036;28;20224;-83
2023/02/04 00:16:51;;;;;;;13.13;8.30;;;;;9.40;102764.00;;;;10508064;27;20296;-83
2023/02/04 00:21:52;;;;;;;14.87;9.27;;;;;9.40;102769.00;;;;10454856;28;20521;-83
2023/02/04 00:26:53;;;;;;;19.70;10.17;;;;;9.20;102778.00;;;;10516153;27;20204;-82
2023/02/04 00:31:54;;;;;;;16.37;9.50;;;;;9.20;102782.00;;;;10486397;28;20545;-82
2023/02/04 00:36:55;;;;;;;15.70;9.43;;;;;9.10;102779.00;;;;10459155;28;20691;-82
2023/02/04 00:41:56;;;;;;;16.10;9.90;;;;;9.10;102775.00;;;;10468422;28;20197;-83
2023/02/04 00:46:58;;;;;;;21.53;11.47;;;;;9.10;102773.00;;;;10491713;28;20285;-82
2023/02/04 00:51:59;;;;;;;20.10;11.17;;;;;9.00;102780.00;;;;10488258;28;20224;-82
2023/02/04 00:57:00;;;;;;;23.50;11.53;;;;;9.00;102773.00;;;;10515017;27;20326;-82
2023/02/04 01:02:02;;;;;;;18.47;11.40;;;;;9.00;102777.00;;;;10482082;28;20392;-81
2023/02/04 01:07:03;;;;;;;19.07;12.43;;;;;9.00;102776.00;;;;10482016;28;20270;-82
2023/02/04 01:12:04;;;;;;;18.63;11.73;;;;;9.00;102780.00;;;;10463474;28;20216;-82
2023/02/04 01:17:06;;;;;;;21.10;12.70;;;;;9.00;102775.00;;;;10481982;27;20221;-82
2023/02/04 01:22:07;;;;;;;20.03;12.93;;;;;8.90;102780.00;;;;10515560;28;20244;-82
2023/02/04 01:27:08;;;;;;;21.90;12.50;;;;;8.90;102780.00;;;;10509702;27;20201;-81
2023/02/04 01:32:10;;;;;;;24.20;14.20;;;;;8.90;102786.00;;;;10502170;28;20255;-81
2023/02/04 01:37:11;;;;;;;27.13;14.73;;;;;8.90;102782.00;;;;10468714;28;20229;-83
2023/02/04 01:42:12;;;;;;;29.23;15.33;;;;;8.90;102795.00;;;;10473570;28;20630;-83
2023/02/04 01:47:14;;;;;;;22.60;14.63;;;;;8.90;102801.00;;;;10512515;28;20200;-83
2023/02/04 01:52:16;;;;;;;20.77;14.43;;;;;8.80;102804.00;;;;10454810;28;20502;-82
2023/02/04 01:57:18;;;;;;;23.60;14.07;;;;;8.80;102810.00;;;;10516615;27;20229;-83
2023/02/04 02:02:47;;;;;;;21.47;13.87;;;;;8.80;102818.00;;;;10480710;28;20196;-82
2023/02/04 02:07:53;;;;;;;23.70;14.43;;;;;8.80;102811.00;;;;10502428;28;20219;-82
2023/02/04 02:12:55;;;;;;;22.67;14.03;;;;;8.80;102810.00;;;;10498978;28;20220;-83
2023/02/04 02:17:57;;;;;;;24.63;15.03;;;;;8.80;102823.00;;;;10442832;28;20216;-83
2023/02/04 02:23:19;;;;;;;24.93;16.03;;;;;8.80;102838.00;;;;10487086;28;20197;-83
2023/02/04 02:28:22;;;;;;;24.90;16.03;;;;;8.60;102845.00;;;;10451664;28;20209;-82
2023/02/04 02:33:25;;;;;;;22.57;13.17;;;;;8.40;102840.00;;;;10467161;28;20261;-82
2023/02/04 02:38:26;;;;;;;23.37;12.50;;;;;8.30;102846.00;;;;10534589;28;20262;-83
2023/02/04 02:43:29;;;;;;;22.47;11.80;;;;;8.10;102845.00;;;;10494860;28;20212;-82
2023/02/04 02:48:32;;;;;;;21.13;10.27;;;;;8.10;102841.00;;;;10478621;28;20265;-83
2023/02/04 02:53:33;;;;;;;21.53;11.37;;;;;8.00;102837.00;;;;10496100;28;20205;-82
2023/02/04 02:58:35;;;;;;;23.53;10.70;;;;;8.00;102840.00;;;;10447315;28;20197;-83
2023/02/04 03:03:44;;;;;;;21.90;10.37;;;;;8.00;102833.00;;;;10500524;28;20223;-82
2023/02/04 03:08:51;;;;;;;20.93;10.20;;;;;8.00;102843.00;;;;10460683;28;20221;-81
2023/02/04 03:13:53;;;;;;;19.60;9.37;;;;;8.00;102848.00;;;;10536546;27;20249;-82
2023/02/04 03:18:54;;;;;;;18.90;9.30;;;;;8.00;102843.00;;;;10465625;28;20860;-82
2023/02/04 03:23:55;;;;;;;18.07;9.43;;;;;7.90;102847.00;;;;10468291;28;20201;-82
2023/02/04 03:28:58;;;;;;;15.00;7.90;;;;;7.90;102849.00;;;;10460088;28;20213;-82
2023/02/04 03:33:59;;;;;;;18.97;7.00;;;;;7.90;102846.00;;;;10479947;28;20883;-82
2023/02/04 03:39:02;;;;;;;19.47;7.87;;;;;7.90;102854.00;;;;10508216;28;20197;-82
2023/02/04 03:44:03;;;;;;;15.83;6.77;;;;;7.90;102861.00;;;;10481843;28;20208;-82
2023/02/04 03:49:04;;;;;;;19.73;7.10;;;;;7.90;102865.00;;;;10481305;28;20611;-82
2023/02/04 03:54:05;;;;;;;18.27;8.30;;;;;7.90;102870.00;;;;10468113;28;20194;-81
2023/02/04 03:59:07;;;;;;;13.17;6.63;;;;;7.90;102866.00;;;;10490759;28;20222;-81
2023/02/04 04:04:08;;;;;;;19.40;7.60;;;;;7.90;102866.00;;;;10457783;28;20205;-81
2023/02/04 04:09:09;;;;;;;16.07;6.47;;;;;7.90;102869.00;;;;10506279;28;20220;-81
2023/02/04 04:14:11;;;;;;;13.83;6.70;;;;;7.90;102877.00;;;;10504115;28;20601;-82
2023/02/04 04:19:12;;;;;;;18.67;7.87;;;;;7.90;102872.00;;;;10477964;28;20206;-82
2023/02/04 04:24:13;;;;;;;15.30;6.87;;;;;7.90;102885.00;;;;10488175;28;20200;-82
2023/02/04 04:29:14;;;;;;;17.97;7.27;;;;;7.90;102885.00;;;;10514105;28;20259;-82
2023/02/04 04:34:16;;;;;;;14.17;6.87;;;;;8.00;102890.00;;;;10479610;28;20216;-82
2023/02/04 04:39:17;;;;;;;15.30;7.20;;;;;8.00;102890.00;;;;10491662;27;20204;-82
2023/02/04 04:44:18;;;;;;;16.23;7.50;;;;;8.00;102889.00;;;;10495400;28;20197;-81
2023/02/04 04:49:20;;;;;;;20.53;7.23;;;;;8.00;102901.00;;;;10474488;28;20756;-82
2023/02/04 04:54:24;;;;;;;16.10;8.07;;;;;8.00;102898.00;;;;10491471;28;20208;-81
2023/02/04 04:59:25;;;;;;;15.97;7.33;;;;;8.00;102905.00;;;;10482555;28;20343;-81
2023/02/04 05:04:26;;;;;;;17.07;7.23;;;;;8.00;102897.00;;;;10489217;28;20597;-81
2023/02/04 05:09:28;;;;;;;16.93;7.30;;;;;8.00;102907.00;;;;10474538;28;20224;-81
2023/02/04 05:14:29;;;;;;;18.33;7.70;;;;;8.00;102901.00;;;;10479433;28;20251;-81
2023/02/04 05:19:30;;;;;;;21.00;8.27;;;;;8.00;102896.00;;;;10502518;27;20197;-81
2023/02/04 05:24:31;;;;;;;17.80;7.37;;;;;8.00;102899.00;;;;10482108;28;20201;-81
2023/02/04 05:29:32;;;;;;;15.07;6.50;;;;;8.00;102891.00;;;;10475284;28;20209;-81
2023/02/04 05:34:34;;;;;;;13.37;6.67;;;;;8.00;102897.00;;;;10474739;28;20212;-82
2023/02/04 05:39:35;;;;;;;17.53;7.30;;;;;8.00;102912.00;;;;10496723;28;20259;-81
2023/02/04 05:44:37;;;;;;;14.37;6.30;;;;;8.00;102905.00;;;;10484007;28;20204;-81
2023/02/04 05:49:38;;;;;;;15.00;7.43;;;;;8.00;102924.00;;;;10475766;28;20247;-82
2023/02/04 05:54:39;;;;;;;12.93;6.83;;;;;8.00;102921.00;;;;10494595;28;20288;-81
2023/02/04 05:59:41;;;;;;;17.13;7.70;;;;;8.00;102917.00;;;;10488140;27;20568;-81
2023/02/04 06:04:43;;;;;;;15.30;7.67;;;;;8.00;102923.00;;;;10457741;28;20201;-82
2023/02/04 06:09:45;;;;;;;16.33;7.33;;;;;8.00;102939.00;;;;10468474;28;20216;-82
2023/02/04 06:14:47;;;;;;;14.83;7.57;;;;;8.00;102942.00;;;;10475818;28;20205;-82
2023/02/04 06:19:48;;;;;;;17.30;8.20;;;;;8.00;102932.00;;;;10465756;28;20250;-82
2023/02/04 06:24:49;;;;;;;15.23;8.27;;;;;8.00;102930.00;;;;10471430;28;20218;-82
2023/02/04 06:29:52;;;;;;;17.17;8.87;;;;;8.00;102936.00;;;;10499864;27;20239;-83
2023/02/04 06:34:53;;;;;;;20.37;9.43;;;;;8.00;102941.00;;;;10456501;27;20197;-82
2023/02/04 06:39:56;;;;;;;22.17;9.90;;;;;8.00;102954.00;;;;10496684;28;20208;-83
2023/02/04 06:44:59;;;;;;;15.23;8.63;;;;;8.00;102960.00;;;;10435263;28;1291233;-82
2023/02/04 06:50:01;;;;;;;19.40;9.57;;;;;8.00;102968.00;;;;10468540;28;20743;-82
2023/02/04 06:55:04;;;;;;;18.77;9.20;;;;;8.10;102967.00;;;;10434881;28;20285;-82
2023/02/04 07:00:07;;;;;;;17.60;8.43;;;;;8.10;102971.00;;;;10473471;28;20202;-83
2023/02/04 07:05:09;;;;;;;22.63;9.30;;;;;8.10;102977.00;;;;10458396;28;20200;-82
2023/02/04 07:10:12;;;;;;;19.90;9.17;;;;;8.10;102977.00;;;;10473312;28;20297;-82
2023/02/04 07:15:14;;;;;;;18.60;8.97;;;;;8.10;102975.00;;;;10459309;28;20685;-82
2023/02/04 07:20:16;;;;;;;23.57;9.47;;;;;8.10;102978.00;;;;10460260;28;20751;-82
2023/02/04 07:25:18;;;;;;;18.57;8.70;;;;;8.10;102983.00;;;;10446768;28;20198;-83
2023/02/04 07:30:20;;;;;;;21.73;9.13;;;;;8.20;102989.00;;;;10459613;28;20212;-83
2023/02/04 07:35:23;;;;;;;18.73;9.13;;;;;8.20;102988.00;;;;10454201;28;20198;-82
2023/02/04 07:40:25;;;;;;;19.67;9.00;;;;;8.20;102997.00;;;;10479708;28;20201;-82
2023/02/04 07:45:27;;;;;;;19.03;8.53;;;;;8.20;102998.00;;;;10456355;28;20281;-82
2023/02/04 07:50:29;;;;;;;19.80;9.73;;;;;8.30;103001.00;;;;10463622;28;20237;-82
2023/02/04 07:55:32;;;;;;;19.10;9.33;;;;;8.30;103007.00;;;;10458804;28;20259;-82
2023/02/04 08:00:34;;;;;;;19.50;9.83;;;;;8.20;103011.00;;;;10465600;28;20185;-83
2023/02/04 08:05:36;;;;;;;18.60;10.80;;;;;8.20;103021.00;;;;10465868;28;20300;-83
2023/02/04 08:10:37;;;;;;;19.77;10.70;;;;;8.30;103022.00;;;;10457212;28;20215;-82
2023/02/04 08:15:42;;;;;;;21.93;11.17;;;;;8.40;103023.00;;;;10468686;28;20664;-83
2023/02/04 08:20:44;;;;;;;18.23;8.87;;;;;8.40;103026.00;;;;10463788;28;20181;-83
2023/02/04 08:25:46;;;;;;;20.37;9.80;;;;;8.40;103030.00;;;;10457642;28;20228;-82
2023/02/04 08:30:48;;;;;;;19.60;9.30;;;;;8.50;103033.00;;;;10452858;28;20295;-82
2023/02/04 08:35:50;;;;;;;20.53;9.23;;;;;8.50;103047.00;;;;10410846;28;20275;-82
2023/02/04 08:40:52;;;;;;;21.33;9.00;;;;;8.60;103051.00;;;;10424134;28;20190;-82
2023/02/04 08:45:54;;;;;;;15.53;8.63;;;;;8.60;103053.00;;;;10480050;28;20213;-82
2023/02/04 08:50:56;;;;;;;22.07;9.83;;;;;8.70;103058.00;;;;10472194;28;20198;-81
2023/02/04 08:56:00;;;;;;;22.27;9.90;;;;;8.80;103064.00;;;;10462736;28;20255;-81
2023/02/04 09:01:02;;;;;;;21.60;10.20;;;;;9.00;103066.00;;;;10469182;28;20185;-81
2023/02/04 09:06:05;;;;;;;23.13;9.43;;;;;9.10;103073.00;;;;10463473;28;20685;-81
2023/02/04 09:11:10;;;;;;;21.70;9.80;;;;;9.20;103088.00;;;;10495104;28;20296;-80
2023/02/04 09:16:11;;;;;;;29.63;10.43;;;;;9.40;103085.00;;;;10457303;28;20200;-81
2023/02/04 09:21:13;;;;;;;21.20;9.63;;;;;9.70;103088.00;;;;10454718;28;20277;-81
2023/02/04 09:26:16;;;;;;;19.33;9.03;;;;;9.80;103087.00;;;;10422794;28;20814;-81
2023/02/04 09:31:17;;;;;;;21.13;9.97;;;;;10.00;103088.00;;;;10431425;28;20198;-81
2023/02/04 09:36:20;;;;;;;17.07;7.77;;;;;10.00;103085.00;;;;10436252;28;20201;-81
2023/02/04 09:41:22;;;;;;;16.70;7.87;;;;;10.00;103088.00;;;;10440809;28;20727;-81
2023/02/04 09:46:29;;;;;;;12.90;6.73;;;;;9.90;103105.00;;;;10423771;28;20209;-81
2023/02/04 09:51:33;;;;;;;18.50;6.83;;;;;9.90;103100.00;;;;10440943;28;20270;-82
2023/02/04 09:56:35;;;;;;;12.43;6.33;;;;;9.90;103113.00;;;;10458307;28;20200;-82
2023/02/04 10:01:38;;;;;;;11.97;5.90;;;;;9.90;103109.00;;;;10457709;28;20223;-82
2023/02/04 10:06:41;;;;;;;11.13;5.80;;;;;10.10;103109.00;;;;10456646;28;20217;-82
2023/02/04 10:11:47;;;;;;;9.00;4.70;;;;;10.10;103112.00;;;;10459157;28;20210;-82
2023/02/04 10:16:54;;;;;;;7.17;3.07;;;;;10.30;103110.00;;;;10474291;28;20186;-82
2023/02/04 10:22:06;;;;;;;8.13;4.30;;;;;10.30;103120.00;;;;10447069;28;20249;-81
2023/02/04 10:27:10;;;;;;;6.37;3.80;;;;;10.20;103128.00;;;;10457646;28;20220;-82
2023/02/04 10:32:29;;;;;;;6.50;3.37;;;;;10.00;103126.00;;;;10440024;28;20197;-82
2023/02/04 10:37:31;;;;;;;7.50;4.73;;;;;10.00;103131.00;;;;10418647;28;20217;-82
2023/02/04 10:42:33;;;;;;;7.37;4.50;;;;;10.10;103138.00;;;;10456382;28;20961;-82
2023/02/04 10:47:35;;;;;;;7.83;4.30;;;;;10.20;103138.00;;;;10437039;28;20201;-82
2023/02/04 10:52:40;;;;;;;4.97;3.83;;;;;10.10;103138.00;;;;10455862;28;20209;-82
2023/02/04 10:57:45;;;;;;;5.97;3.10;;;;;9.90;103151.00;;;;10463062;28;20197;-82
2023/02/04 11:03:09;;;;;;;4.83;2.77;;;;;9.80;103158.00;;;;10460569;28;20196;-82
2023/02/04 11:08:23;;;;;;;5.70;3.40;;;;;9.90;103158.00;;;;10456866;28;20233;-82
2023/02/04 11:13:38;;;;;;;2.70;1.90;;;;;10.10;103144.00;;;;10445259;28;20216;-82
2023/02/04 11:18:45;;;;;;;5.67;1.73;;;;;10.20;103142.00;;;;10446482;28;20924;-82
2023/02/04 11:23:47;;;;;;;4.60;2.33;;;;;10.40;103136.00;;;;10451342;28;20194;-82
2023/02/04 11:29:33;;;;;;;4.57;3.03;;;;;10.40;103136.00;;;;10461508;28;20198;-82
2023/02/04 11:34:46;;;;;;;6.30;3.77;;;;;10.90;103122.00;;;;10435533;28;21043;-82
2023/02/04 11:39:49;;;;;;;7.60;4.23;;;;;11.00;103129.00;;;;10430573;28;20277;-82
2023/02/04 11:45:07;;;;;;;5.47;3.80;;;;;11.00;103132.00;;;;10448925;28;20204;-82
2023/02/04 11:50:12;;;;;;;5.50;4.00;;;;;10.80;103129.00;;;;10501969;28;20215;-82
2023/02/04 11:55:15;;;;;;;6.30;4.00;;;;;10.80;103134.00;;;;10470347;28;20224;-82
2023/02/04 12:00:27;;;;;;;5.30;3.50;;;;;10.90;103136.00;;;;10473052;28;20197;-82
2023/02/04 12:05:41;;;;;;;5.00;3.43;;;;;11.20;103131.00;;;;10457976;28;20200;-82
2023/02/04 12:10:48;;;;;;;6.20;4.40;;;;;11.30;103125.00;;;;10472912;28;20304;-82
2023/02/04 12:15:58;;;;;;;8.90;5.63;;;;;11.60;103123.00;;;;10459851;28;20230;-82
2023/02/04 12:21:03;;;;;;;8.50;4.80;;;;;11.90;103117.00;;;;10503749;28;20637;-82
2023/02/04 12:26:05;;;;;;;7.73;5.10;;;;;11.80;103126.00;;;;10441472;28;20247;-82
2023/02/04 12:31:09;;;;;;;7.40;4.43;;;;;11.60;103135.00;;;;10448938;28;20208;-83
2023/02/04 12:36:11;;;;;;;11.80;6.30;;;;;11.40;103137.00;;;;10455273;28;20236;-82
2023/02/04 12:41:13;;;;;;;8.10;5.70;;;;;11.20;103137.00;;;;10474109;28;20194;-82
2023/02/04 12:46:16;;;;;;;10.30;6.67;;;;;11.10;103140.00;;;;10466621;28;20205;-82
2023/02/04 12:51:19;;;;;;;8.90;6.10;;;;;11.30;103142.00;;;;10447629;28;20217;-82
2023/02/04 12:56:23;;;;;;;8.97;6.60;;;;;11.50;103136.00;;;;10452175;28;20193;-82
2023/02/04 13:01:27;;;;;;;13.37;7.47;;;;;11.60;103136.00;;;;10419047;28;20190;-82
2023/02/04 13:06:29;;;;;;;18.83;10.10;;;;;11.60;103130.00;;;;10439963;28;20669;-82
2023/02/04 13:11:31;;;;;;;17.93;8.77;;;;;11.70;103125.00;;;;10445711;28;20343;-82
2023/02/04 13:16:33;;;;;;;17.27;8.40;;;;;11.80;103122.00;;;;10469078;28;20683;-82
2023/02/04 13:21:35;;;;;;;17.37;8.97;;;;;12.00;103118.00;;;;10450696;28;20213;-82
2023/02/04 13:26:37;;;;;;;14.97;9.57;;;;;12.00;103111.00;;;;10451528;28;20190;-82
2023/02/04 13:31:39;;;;;;;14.77;8.13;;;;;11.90;103107.00;;;;10441574;28;20308;-83
2023/02/04 13:36:42;;;;;;;41.30;24.40;;;;;11.90;103108.00;;;;10430385;28;20623;-82
2023/02/04 13:41:45;;;;;;;15.33;8.63;;;;;12.10;103105.00;;;;10427656;28;20183;-82
2023/02/04 13:46:47;;;;;;;24.50;12.87;;;;;12.30;103098.00;;;;10430891;28;20213;-82
2023/02/04 13:51:49;;;;;;;21.27;10.57;;;;;12.50;103092.00;;;;10435083;28;20202;-82
2023/02/04 13:56:51;;;;;;;16.67;10.70;;;;;12.20;103095.00;;;;10439719;28;20193;-82
2023/02/04 14:01:53;;;;;;;21.40;11.47;;;;;12.10;103101.00;;;;10443276;28;20185;-82
2023/02/04 14:06:57;;;;;;;17.83;11.03;;;;;11.80;103099.00;;;;10422164;28;20218;-82
2023/02/04 14:11:59;;;;;;;19.97;11.80;;;;;11.60;103105.00;;;;10446309;28;20209;-84
2023/02/04 14:17:03;;;;;;;23.87;11.70;;;;;11.60;103105.00;;;;10457200;28;20189;-83
2023/02/04 14:22:06;;;;;;;19.10;12.87;;;;;11.50;103095.00;;;;10440419;28;20231;-83
2023/02/04 14:27:09;;;;;;;24.80;13.07;;;;;11.50;103090.00;;;;10442752;28;20197;-83
2023/02/04 14:32:11;;;;;;;23.57;13.70;;;;;11.50;103098.00;;;;10441252;28;20248;-83
2023/02/04 14:37:13;;;;;;;28.33;13.90;;;;;11.60;103101.00;;;;10457694;28;20194;-83
2023/02/04 14:42:15;;;;;;;24.43;13.90;;;;;11.50;103100.00;;;;10458296;28;20189;-83
2023/02/04 14:47:17;;;;;;;27.90;13.63;;;;;11.40;103116.00;;;;10446475;28;20197;-83
2023/02/04 14:52:19;;;;;;;24.20;12.60;;;;;11.40;103117.00;;;;10418150;28;20205;-83
2023/02/04 14:57:23;;;;;;;23.37;13.40;;;;;11.30;103112.00;;;;10459538;28;20200;-83
2023/02/04 15:02:25;;;;;;;27.20;13.57;;;;;11.20;103120.00;;;;10446033;28;20225;-83
2023/02/04 15:07:27;;;;;;;21.63;13.03;;;;;11.10;103125.00;;;;10443368;28;20213;-83
2023/02/04 15:12:28;;;;;;;20.20;11.87;;;;;11.00;103125.00;;;;10465091;28;20300;-82
2023/02/04 15:17:30;;;;;;;22.30;10.77;;;;;10.80;103124.00;;;;10465058;28;20208;-82
2023/02/04 15:22:33;;;;;;;19.63;11.77;;;;;10.60;103121.00;;;;10481890;28;20272;-82
2023/02/04 15:27:35;;;;;;;21.33;11.73;;;;;10.60;103114.00;;;;10468139;28;20200;-82
2023/02/04 15:32:37;;;;;;;26.17;13.03;;;;;10.60;103115.00;;;;10475588;28;20205;-81
2023/02/04 15:37:39;;;;;;;27.17;14.73;;;;;10.50;103121.00;;;;10477815;28;20699;-82
2023/02/04 15:42:41;;;;;;;25.90;15.00;;;;;10.40;103123.00;;;;10443254;28;20206;-82
2023/02/04 15:47:43;;;;;;;28.27;14.73;;;;;10.40;103127.00;;;;10446827;28;20864;-82
2023/02/04 15:52:45;;;;;;;22.53;15.17;;;;;10.30;103135.00;;;;10476405;28;20233;-82
2023/02/04 15:57:47;;;;;;;28.70;18.33;;;;;10.20;103127.00;;;;10480564;28;20197;-82
2023/02/04 16:02:55;;;;;;;29.00;18.07;;;;;10.10;103128.00;;;;10491314;28;20193;-82
2023/02/04 16:07:58;;;;;;;36.30;19.30;;;;;10.00;103134.00;;;;10494093;28;20235;-82
2023/02/04 16:13:00;;;;;;;34.17;19.20;;;;;9.90;103139.00;;;;10474497;28;20278;-82
2023/02/04 16:18:02;;;;;;;41.97;23.53;;;;;9.90;103133.00;;;;10486221;28;20201;-83
2023/02/04 16:23:05;;;;;;;40.43;23.37;;;;;9.80;103139.00;;;;10450821;28;20186;-82
2023/02/04 16:28:08;;;;;;;38.67;20.57;;;;;9.70;103147.00;;;;10465894;28;20621;-83
2023/02/04 16:33:10;;;;;;;34.93;22.10;;;;;9.70;103151.00;;;;10458986;28;20592;-82
2023/02/04 16:38:17;;;;;;;43.63;21.90;;;;;9.70;103154.00;;;;10431456;28;20194;-81
2023/02/04 16:43:20;;;;;;;38.83;22.57;;;;;9.60;103156.00;;;;10431721;28;20198;-82
2023/02/04 16:48:23;;;;;;;41.53;22.20;;;;;9.60;103161.00;;;;10449525;28;20205;-82
2023/02/04 16:53:26;;;;;;;36.73;20.97;;;;;9.50;103166.00;;;;10447522;28;20205;-82
2023/02/04 16:58:29;;;;;;;36.17;19.37;;;;;9.50;103171.00;;;;10434095;28;20218;-82
2023/02/04 17:03:33;;;;;;;35.93;19.50;;;;;9.40;103173.00;;;;10457861;28;20235;-81
2023/02/04 17:08:35;;;;;;;36.67;19.53;;;;;9.40;103181.00;;;;10465227;28;20240;-81
2023/02/04 17:13:37;;;;;;;29.50;16.83;;;;;9.30;103183.00;;;;10466288;28;20206;-82
2023/02/04 17:18:39;;;;;;;25.53;17.10;;;;;9.30;103186.00;;;;10459913;28;20206;-83
2023/02/04 17:30:08;;;;;;;27.10;16.30;;;;;9.20;103191.00;;;;10404486;23;20240;-80
2023/02/04 17:35:11;;;;;;;28.33;16.47;;;;;9.20;103191.00;;;;10007767;29;20209;-79
2023/02/04 17:40:13;;;;;;;78.87;44.17;;;;;9.20;103197.00;;;;10028224;29;20759;-79
2023/02/04 17:45:15;;;;;;;101.10;55.17;;;;;9.20;103198.00;;;;10047815;29;20253;-79
2023/02/04 17:50:18;;;;;;;86.87;46.03;;;;;9.20;103199.00;;;;10008835;29;20243;-79
2023/02/04 17:55:26;;;;;;;30.97;15.07;;;;;9.20;103198.00;;;;10009164;29;20221;-79
2023/02/04 18:00:29;;;;;;;23.37;13.87;;;;;9.20;103204.00;;;;10010813;29;20212;-79
2023/02/04 18:05:33;;;;;;;22.20;13.43;;;;;9.10;103214.00;;;;9979559;29;20212;-79
2023/02/04 18:10:38;;;;;;;23.63;12.97;;;;;9.10;103222.00;;;;9993383;29;20212;-79
2023/02/04 18:15:43;;;;;;;20.27;12.77;;;;;9.00;103224.00;;;;10026162;29;20265;-80
2023/02/04 18:20:46;;;;;;;19.80;11.80;;;;;9.00;103230.00;;;;9999921;29;20201;-79
2023/02/04 18:25:48;;;;;;;21.27;11.77;;;;;9.00;103233.00;;;;9992381;29;20197;-80
2023/02/04 18:30:53;;;;;;;26.17;15.33;;;;;9.00;103232.00;;;;10010727;29;20228;-80
2023/02/04 18:35:59;;;;;;;19.53;11.80;;;;;9.00;103227.00;;;;10011266;29;20703;-80
2023/02/04 18:41:17;;;;;;;21.20;12.23;;;;;9.00;103214.00;;;;10026690;29;20209;-80
2023/02/04 18:46:25;;;;;;;19.67;11.33;;;;;8.90;103210.00;;;;10030260;29;20204;-79
2023/02/04 18:51:32;;;;;;;20.03;11.90;;;;;8.90;103210.00;;;;10018937;29;20228;-80
2023/02/04 18:56:36;;;;;;;23.47;12.40;;;;;8.90;103210.00;;;;10004902;29;20212;-80
2023/02/04 19:01:38;;;;;;;19.77;12.13;;;;;8.90;103222.00;;;;10020954;29;20197;-79
2023/02/04 19:06:42;;;;;;;17.03;11.80;;;;;8.90;103225.00;;;;10012773;29;20201;-79
2023/02/04 19:11:53;;;;;;;18.53;12.20;;;;;8.80;103230.00;;;;10006731;29;20224;-79
2023/02/04 19:17:06;;;;;;;22.87;12.93;;;;;8.80;103235.00;;;;10021609;29;20740;-79
2023/02/04 19:22:46;;;;;;;22.90;13.07;;;;;8.80;103233.00;;;;10015079;29;20271;-79
2023/02/04 19:27:53;;;;;;;24.20;12.83;;;;;8.80;103232.00;;;;10033414;29;20221;-79
2023/02/04 19:32:57;;;;;;;19.90;13.23;;;;;8.80;103225.00;;;;10043858;29;20233;-79
2023/02/04 19:38:02;;;;;;;21.30;11.63;;;;;8.70;103228.00;;;;10023037;29;20289;-79
2023/02/04 19:43:37;;;;;;;20.83;14.33;;;;;8.70;103242.00;;;;10029326;29;20255;-79
2023/02/04 19:48:39;;;;;;;21.60;13.80;;;;;8.70;103240.00;;;;10027395;29;20217;-79
2023/02/04 19:53:50;;;;;;;21.70;12.90;;;;;8.70;103251.00;;;;10028312;29;20205;-79
2023/02/04 19:58:54;;;;;;;20.30;12.43;;;;;8.70;103236.00;;;;10032416;29;20201;-78
2023/02/04 20:03:57;;;;;;;20.47;12.97;;;;;8.70;103245.00;;;;10000293;29;20249;-80
2023/02/04 20:09:19;;;;;;;21.77;14.13;;;;;8.70;103247.00;;;;10039586;29;20205;-79
2023/02/04 20:14:25;;;;;;;18.70;12.87;;;;;8.70;103232.00;;;;10031183;29;20730;-79
2023/02/04 20:19:32;;;;;;;21.83;13.67;;;;;8.70;103229.00;;;;10024311;29;20292;-78
2023/02/04 20:24:38;;;;;;;19.13;11.47;;;;;8.60;103232.00;;;;10026256;29;20239;-78
2023/02/04 20:29:41;;;;;;;17.50;11.17;;;;;8.60;103235.00;;;;10023498;29;20387;-79
2023/02/04 20:34:44;;;;;;;17.23;11.37;;;;;8.50;103234.00;;;;9990430;29;20217;-78
2023/02/04 20:39:49;;;;;;;25.10;13.10;;;;;8.50;103232.00;;;;10007316;29;20556;-79
2023/02/04 20:45:08;;;;;;;17.87;11.30;;;;;8.50;103212.00;;;;10019783;29;20512;-80
2023/02/04 20:50:35;;;;;;;22.03;12.87;;;;;8.50;103225.00;;;;10022370;29;20212;-80
2023/02/04 20:55:37;;;;;;;25.57;14.23;;;;;8.50;103240.00;;;;10014982;29;20201;-79
2023/02/04 21:00:40;;;;;;;25.43;14.47;;;;;8.50;103248.00;;;;10011757;29;20621;-78
2023/02/04 21:05:43;;;;;;;21.57;11.90;;;;;8.40;103243.00;;;;10048237;29;20627;-79
2023/02/04 21:10:46;;;;;;;22.23;13.80;;;;;8.40;103248.00;;;;10032017;29;20206;-79
2023/02/04 21:15:49;;;;;;;23.73;14.00;;;;;8.40;103242.00;;;;10017305;29;20221;-79
2023/02/04 21:20:54;;;;;;;27.03;14.63;;;;;8.30;103244.00;;;;9993505;29;20664;-79
2023/02/04 21:25:58;;;;;;;26.03;15.10;;;;;8.30;103246.00;;;;10025576;29;20197;-79
2023/02/04 21:31:01;;;;;;;24.03;14.33;;;;;8.30;103236.00;;;;10024947;29;20205;-79
2023/02/04 21:36:05;;;;;;;20.10;13.43;;;;;8.20;103242.00;;;;10052256;29;20201;-78
2023/02/04 21:41:08;;;;;;;28.23;15.03;;;;;8.20;103244.00;;;;10041456;29;20303;-79
2023/02/04 21:46:11;;;;;;;24.83;15.50;;;;;8.10;103234.00;;;;10030231;29;20209;-79
2023/02/04 21:51:14;;;;;;;24.87;14.87;;;;;8.10;103233.00;;;;10010331;29;20686;-80
2023/02/04 21:56:17;;;;;;;24.03;14.40;;;;;8.10;103231.00;;;;10040381;29;20201;-79
2023/02/04 22:01:20;;;;;;;26.07;15.47;;;;;8.10;103246.00;;;;10038426;29;20305;-79
2023/02/04 22:06:23;;;;;;;24.70;14.77;;;;;8.00;103238.00;;;;9977507;29;20308;-80
2023/02/04 22:11:26;;;;;;;25.23;14.63;;;;;8.00;103249.00;;;;9979411;29;20600;-79
2023/02/04 22:16:29;;;;;;;29.30;15.13;;;;;8.00;103254.00;;;;10059709;29;20207;-79
2023/02/04 22:21:33;;;;;;;21.40;14.93;;;;;8.00;103257.00;;;;10009244;29;20314;-80
2023/02/04 22:26:37;;;;;;;24.33;15.03;;;;;8.00;103260.00;;;;10006040;29;20231;-79
2023/02/04 22:31:39;;;;;;;28.23;15.70;;;;;8.00;103249.00;;;;10001005;29;20209;-79
2023/02/04 22:36:42;;;;;;;39.30;17.07;;;;;7.90;103251.00;;;;10024702;29;20215;-79
2023/02/04 22:41:45;;;;;;;35.03;17.97;;;;;7.90;103257.00;;;;10049589;29;20236;-81
2023/02/04 22:46:47;;;;;;;31.13;17.47;;;;;7.90;103256.00;;;;10009963;29;20669;-80
2023/02/04 22:51:51;;;;;;;30.03;17.80;;;;;7.90;103260.00;;;;10040913;29;20618;-80
2023/02/04 22:56:56;;;;;;;32.87;18.20;;;;;7.90;103265.00;;;;10011941;29;20209;-80
2023/02/04 23:01:58;;;;;;;39.17;19.20;;;;;7.90;103279.00;;;;10012380;29;20189;-80
2023/02/04 23:07:03;;;;;;;32.23;19.10;;;;;7.90;103268.00;;;;10036855;29;20205;-80
2023/02/04 23:12:12;;;;;;;32.87;18.30;;;;;7.90;103267.00;;;;10045807;29;20220;-79
2023/02/04 23:17:16;;;;;;;32.67;18.67;;;;;8.00;103272.00;;;;10022113;29;20262;-80
2023/02/04 23:22:20;;;;;;;40.73;19.63;;;;;7.90;103266.00;;;;10006621;29;20186;-80
2023/02/04 23:27:22;;;;;;;34.47;19.30;;;;;7.90;103257.00;;;;10024248;29;20256;-80
2023/02/04 23:32:26;;;;;;;33.20;17.80;;;;;7.90;103259.00;;;;10007474;29;20336;-80
2023/02/04 23:37:31;;;;;;;35.67;19.00;;;;;7.90;103254.00;;;;10033744;29;20240;-79
2023/02/04 23:42:33;;;;;;;36.23;20.13;;;;;7.80;103245.00;;;;10014754;29;20253;-80
2023/02/04 23:47:36;;;;;;;33.60;18.83;;;;;7.80;103253.00;;;;9976910;29;20560;-80
2023/02/04 23:52:39;;;;;;;34.70;19.43;;;;;7.80;103247.00;;;;9996416;29;20748;-79
2023/02/04 23:57:42;;;;;;;33.13;18.60;;;;;7.80;103234.00;;;;10036090;29;20200;-80
